Time;durP1;ratioP1;P1;durP2;ratioP2;P2;SDS_P1;SDS_P2;PMS_P1;PMS_P2;Temp;Humidity;BMP_temperature;BMP_pressure;BME280_temperature;BME280_humidity;BME280_pressure;Samples;Min_cycle;Max_cycle;Signal;HPM_P1;HPM_P2
2023/04/16 00:04:52;;;;;;;1999.90;999.90;;;7.70;99.90;;;;;;6743074;87;20218;-76
2023/04/16 00:14:53;;;;;;;1999.90;999.90;;;7.80;99.90;;;;;;6741212;87;20228;-75
2023/04/16 00:24:53;;;;;;;1999.90;999.90;;;7.70;99.90;;;;;;6740049;87;20285;-77
2023/04/16 00:34:54;;;;;;;1999.90;999.90;;;7.70;99.90;;;;;;6740481;87;20635;-77
2023/04/16 00:44:55;;;;;;;1999.90;999.90;;;7.70;99.90;;;;;;6743822;87;20184;-75
2023/04/16 00:54:55;;;;;;;1999.90;999.90;;;7.70;99.90;;;;;;6738768;87;20539;-76
2023/04/16 01:04:56;;;;;;;1999.90;999.90;;;7.70;99.90;;;;;;6740505;87;20235;-76
2023/04/16 01:14:56;;;;;;;1999.90;999.90;;;7.80;99.90;;;;;;6738561;87;20215;-76
2023/04/16 01:24:57;;;;;;;1999.90;999.90;;;7.80;99.90;;;;;;6725440;88;20278;-76
2023/04/16 01:34:57;;;;;;;1999.90;999.90;;;7.80;99.90;;;;;;6726137;88;20209;-77
2023/04/16 01:44:58;;;;;;;1999.90;999.90;;;7.80;99.90;;;;;;6727000;88;20228;-76
2023/04/16 01:54:58;;;;;;;1999.90;999.90;;;7.80;99.90;;;;;;6726980;88;20211;-76
2023/04/16 02:04:59;;;;;;;1999.90;999.90;;;7.80;99.90;;;;;;6725565;88;20295;-76
2023/04/16 02:15:00;;;;;;;1999.90;999.90;;;7.80;99.90;;;;;;6742292;87;20231;-77
2023/04/16 02:25:00;;;;;;;1999.90;999.90;;;7.80;99.90;;;;;;6759307;87;21039;-76
2023/04/16 02:35:02;;;;;;;1999.90;999.90;;;7.70;99.90;;;;;;6758052;87;20651;-75
2023/04/16 02:45:03;;;;;;;1999.90;999.90;;;7.80;99.90;;;;;;6764822;87;20660;-75
2023/04/16 02:55:05;;;;;;;1999.90;999.90;;;7.80;99.90;;;;;;6755705;87;20240;-74
2023/04/16 03:05:06;;;;;;;1999.90;999.90;;;7.70;99.90;;;;;;6755394;87;20186;-75
2023/04/16 03:15:07;;;;;;;1999.90;999.90;;;7.70;99.90;;;;;;6755477;87;20200;-75
2023/04/16 03:25:08;;;;;;;1999.90;999.90;;;7.70;99.90;;;;;;6755156;87;20206;-77
2023/04/16 03:35:10;;;;;;;1999.90;999.90;;;7.70;99.90;;;;;;6761634;87;20658;-76
2023/04/16 03:45:10;;;;;;;1999.90;999.90;;;7.80;99.90;;;;;;6756215;87;20299;-76
2023/04/16 03:55:11;;;;;;;1999.90;999.90;;;7.80;99.90;;;;;;6754379;87;20194;-76
2023/04/16 04:05:12;;;;;;;1999.90;999.90;;;7.80;99.90;;;;;;6756760;87;20212;-77
2023/04/16 04:15:12;;;;;;;1999.90;999.90;;;7.80;99.90;;;;;;6757295;87;20195;-77
2023/04/16 04:25:13;;;;;;;1999.90;999.90;;;7.70;99.90;;;;;;6757874;87;20338;-76
2023/04/16 04:35:13;;;;;;;1999.90;999.90;;;7.70;99.90;;;;;;6753040;87;20758;-77
2023/04/16 04:45:14;;;;;;;1999.90;999.90;;;7.70;99.90;;;;;;6756527;87;20614;-76
2023/04/16 04:55:15;;;;;;;1999.90;999.90;;;7.80;99.90;;;;;;6754818;87;20216;-77
2023/04/16 05:05:15;;;;;;;1999.90;999.90;;;7.80;99.90;;;;;;6758204;87;20400;-77
2023/04/16 05:15:16;;;;;;;1999.90;999.90;;;7.80;99.90;;;;;;6753689;87;20239;-76
2023/04/16 05:25:17;;;;;;;1999.90;999.90;;;7.80;99.90;;;;;;6757462;87;20183;-76
2023/04/16 05:35:17;;;;;;;1999.90;999.90;;;7.90;99.90;;;;;;6758705;87;20204;-77
2023/04/16 05:45:18;;;;;;;1999.90;999.90;;;7.90;99.90;;;;;;6758266;87;20202;-77
2023/04/16 05:55:18;;;;;;;1999.90;999.90;;;7.90;99.90;;;;;;6757442;87;20228;-77
2023/04/16 06:05:19;;;;;;;1999.90;999.90;;;8.00;99.90;;;;;;6757375;87;20349;-76
2023/04/16 06:15:19;;;;;;;1999.90;999.90;;;7.90;99.90;;;;;;6756396;87;20358;-77
2023/04/16 06:25:20;;;;;;;1999.90;999.90;;;8.00;99.90;;;;;;6755209;87;20176;-77
2023/04/16 06:35:21;;;;;;;1999.90;999.90;;;8.00;99.90;;;;;;6755687;87;20284;-77
2023/04/16 06:45:21;;;;;;;1999.90;999.90;;;8.20;99.90;;;;;;6754362;87;20262;-77
2023/04/16 06:55:22;;;;;;;1999.90;999.90;;;8.20;99.90;;;;;;6754937;87;20204;-77
2023/04/16 07:05:22;;;;;;;1999.90;999.90;;;8.10;99.90;;;;;;6754391;87;20696;-76
2023/04/16 07:15:23;;;;;;;1999.90;999.90;;;8.20;99.90;;;;;;6753627;87;20945;-76
2023/04/16 07:25:25;;;;;;;1999.90;999.90;;;8.20;99.90;;;;;;6755517;87;20232;-76
2023/04/16 07:35:26;;;;;;;1999.90;999.90;;;8.20;99.90;;;;;;6754986;87;20218;-77
2023/04/16 07:45:27;;;;;;;1999.90;999.90;;;8.20;99.90;;;;;;6752841;87;20214;-78
2023/04/16 07:55:28;;;;;;;1999.90;999.90;;;8.30;99.90;;;;;;6754718;87;20168;-75
2023/04/16 08:05:28;;;;;;;1999.90;999.90;;;8.30;99.90;;;;;;6759995;87;20200;-76
2023/04/16 08:15:29;;;;;;;1999.90;999.90;;;8.50;99.90;;;;;;6754403;87;20199;-75
2023/04/16 08:25:30;;;;;;;1999.90;999.90;;;8.50;99.90;;;;;;6753764;87;20177;-77
2023/04/16 08:35:30;;;;;;;1999.90;999.90;;;8.50;99.90;;;;;;6749391;76;20209;-76
2023/04/16 08:45:34;;;;;;;1999.90;999.90;;;8.50;99.90;;;;;;6737064;88;21075;-75
2023/04/16 08:55:39;;;;;;;1999.90;999.90;;;8.60;99.90;;;;;;6729336;88;20676;-76
2023/04/16 09:05:42;;;;;;;1999.90;999.90;;;8.60;99.90;;;;;;6725090;88;20188;-78
2023/04/16 09:15:43;;;;;;;1999.90;999.90;;;8.80;99.90;;;;;;6724371;88;20205;-77
2023/04/16 09:25:43;;;;;;;1999.90;999.90;;;9.00;99.90;;;;;;6720091;88;20277;-77
2023/04/16 09:35:46;;;;;;;1999.90;999.90;;;9.10;99.90;;;;;;6736310;88;20240;-77
2023/04/16 09:45:51;;;;;;;1999.90;999.90;;;9.20;99.90;;;;;;6743139;88;20206;-79
2023/04/16 09:56:03;;;;;;;1999.90;999.90;;;9.30;99.90;;;;;;6740086;88;20173;-77
2023/04/16 10:06:15;;;;;;;1999.90;999.90;;;9.50;99.90;;;;;;6729994;88;20237;-77
2023/04/16 10:16:16;;;;;;;1999.90;999.90;;;10.20;99.90;;;;;;6738371;88;20215;-78
2023/04/16 10:26:17;;;;;;;1999.90;999.90;;;10.60;99.90;;;;;;6734433;88;20181;-76
2023/04/16 10:36:25;;;;;;;1999.90;999.90;;;10.80;99.90;;;;;;6733458;88;20248;-76
2023/04/16 10:46:35;;;;;;;1999.90;999.90;;;10.90;99.90;;;;;;6734230;88;20925;-77
2023/04/16 10:56:36;;;;;;;1999.90;999.90;;;10.60;99.90;;;;;;6737138;88;20234;-78
2023/04/16 11:06:37;;;;;;;1999.90;999.90;;;10.70;99.90;;;;;;6735874;88;20350;-79
2023/04/16 11:16:40;;;;;;;1999.90;999.90;;;11.00;99.90;;;;;;6739846;88;20200;-76
2023/04/16 11:26:40;;;;;;;1999.90;999.90;;;11.20;99.90;;;;;;6730583;88;20698;-76
2023/04/16 11:36:48;;;;;;;1999.90;999.90;;;11.40;99.90;;;;;;6730189;88;20201;-76
2023/04/16 11:46:50;;;;;;;1999.90;999.90;;;11.40;99.90;;;;;;6727298;88;20782;-76
2023/04/16 11:56:52;;;;;;;1999.90;999.90;;;11.90;99.90;;;;;;6724176;88;20213;-77
2023/04/16 12:07:10;;;;;;;1999.90;999.90;;;11.80;99.90;;;;;;6728881;88;20192;-79
2023/04/16 12:17:20;;;;;;;1999.90;999.90;;;11.90;99.90;;;;;;6726565;88;20235;-77
2023/04/16 12:27:21;;;;;;;1999.90;999.90;;;12.20;99.90;;;;;;6735028;88;20322;-76
2023/04/16 12:37:22;;;;;;;1999.90;999.90;;;12.40;99.90;;;;;;6729006;88;20299;-76
2023/04/16 12:47:22;;;;;;;1999.90;999.90;;;12.80;99.90;;;;;;6732314;88;20196;-77
2023/04/16 12:57:27;;;;;;;1999.90;999.90;;;13.10;99.90;;;;;;6729118;88;20613;-77
2023/04/16 13:07:30;;;;;;;1999.90;999.90;;;12.60;99.90;;;;;;6727712;88;20528;-77
2023/04/16 13:17:31;;;;;;;1999.90;999.90;;;12.70;99.90;;;;;;6729977;88;20202;-78
2023/04/16 13:27:31;;;;;;;1999.90;999.90;;;13.40;99.90;;;;;;6737906;88;20180;-78
2023/04/16 13:37:33;;;;;;;1999.90;999.90;;;13.70;99.90;;;;;;6735110;88;20264;-78
2023/04/16 13:47:35;;;;;;;1999.90;999.90;;;13.50;99.90;;;;;;6727866;88;20284;-78
2023/04/16 13:57:35;;;;;;;1999.90;999.90;;;13.20;99.90;;;;;;6742799;77;20196;-77
2023/04/16 14:07:36;;;;;;;1999.90;999.90;;;13.40;99.90;;;;;;6738145;88;20212;-76
2023/04/16 14:17:37;;;;;;;1999.90;999.90;;;13.40;99.90;;;;;;6734606;88;20279;-78
2023/04/16 14:27:37;;;;;;;1999.90;999.90;;;13.30;99.90;;;;;;6722159;88;20653;-77
2023/04/16 14:37:38;;;;;;;1999.90;999.90;;;13.10;99.90;;;;;;6743009;77;20193;-76
2023/04/16 14:47:44;;;;;;;1999.90;999.90;;;13.30;99.90;;;;;;6712518;88;20499;-75
2023/04/16 14:57:45;;;;;;;1999.90;999.90;;;13.40;99.90;;;;;;6708045;88;20993;-76
2023/04/16 15:07:46;;;;;;;1999.90;999.90;;;13.40;99.90;;;;;;6711395;88;20286;-78
2023/04/16 15:17:46;;;;;;;1999.90;999.90;;;13.40;99.90;;;;;;6707573;88;20706;-76
2023/04/16 15:27:47;;;;;;;1999.90;999.90;;;13.20;99.90;;;;;;6711978;88;20515;-76
2023/04/16 15:37:48;;;;;;;1999.90;999.90;;;13.30;99.90;;;;;;6714665;88;20507;-76
2023/04/16 15:47:50;;;;;;;1999.90;999.90;;;13.30;99.90;;;;;;6717948;88;20211;-76
2023/04/16 15:57:51;;;;;;;1999.90;999.90;;;13.30;99.90;;;;;;6708627;88;20201;-77
2023/04/16 16:07:51;;;;;;;1999.90;999.90;;;13.50;99.90;;;;;;6711217;88;20194;-76
2023/04/16 16:17:52;;;;;;;1999.90;999.90;;;13.60;99.90;;;;;;6712455;88;20221;-77
2023/04/16 16:27:52;;;;;;;1999.90;999.90;;;13.80;99.90;;;;;;6705731;88;20201;-77
2023/04/16 16:37:55;;;;;;;1999.90;999.90;;;14.00;99.90;;;;;;6709426;88;20217;-76
2023/04/16 16:47:57;;;;;;;1999.90;999.90;;;13.80;99.90;;;;;;6714501;88;20269;-76
2023/04/16 16:57:58;;;;;;;1999.90;999.90;;;13.50;99.90;;;;;;6709477;88;20654;-75
2023/04/16 17:07:59;;;;;;;1999.90;999.90;;;13.20;99.90;;;;;;6710829;88;20236;-75
2023/04/16 17:18:00;;;;;;;1999.90;999.90;;;12.80;99.90;;;;;;6715480;88;20190;-77
2023/04/16 17:28:01;;;;;;;1999.90;999.90;;;12.60;99.90;;;;;;6710950;88;20315;-77
2023/04/16 17:38:01;;;;;;;1999.90;999.90;;;12.40;99.90;;;;;;6717630;88;20215;-78
2023/04/16 17:48:02;;;;;;;1999.90;999.90;;;12.30;99.90;;;;;;6724207;88;20177;-75
2023/04/16 17:58:03;;;;;;;1999.90;999.90;;;12.00;99.90;;;;;;6713819;88;20325;-76
2023/04/16 18:08:04;;;;;;;1999.90;999.90;;;12.00;99.90;;;;;;6710848;88;20231;-76
2023/04/16 18:18:04;;;;;;;1999.90;999.90;;;11.90;99.90;;;;;;6720982;88;20340;-76
2023/04/16 18:28:05;;;;;;;1999.90;999.90;;;11.70;99.90;;;;;;6716036;88;20244;-77
2023/04/16 18:38:06;;;;;;;1999.90;999.90;;;11.70;99.90;;;;;;6713498;88;20269;-76
2023/04/16 18:48:06;;;;;;;1999.90;999.90;;;11.80;99.90;;;;;;6713483;88;20189;-77
2023/04/16 18:58:07;;;;;;;1999.90;999.90;;;11.70;99.90;;;;;;6712935;88;20189;-75
2023/04/16 19:08:07;;;;;;;1999.90;999.90;;;11.60;99.90;;;;;;6706770;88;20216;-75
2023/04/16 19:18:08;;;;;;;1999.90;999.90;;;11.70;99.90;;;;;;6705953;88;20309;-78
2023/04/16 19:28:08;;;;;;;1999.90;999.90;;;11.50;99.90;;;;;;6715668;88;20190;-77
2023/04/16 19:38:09;;;;;;;1999.90;999.90;;;11.30;99.90;;;;;;6717199;88;20239;-79
2023/04/16 19:48:10;;;;;;;1999.90;999.90;;;11.20;99.90;;;;;;6718787;88;20189;-77
2023/04/16 19:58:10;;;;;;;1999.90;999.90;;;11.20;99.90;;;;;;6718682;88;20985;-78
2023/04/16 20:08:11;;;;;;;1999.90;999.90;;;11.20;99.90;;;;;;6718094;88;20742;-77
2023/04/16 20:18:12;;;;;;;1999.90;999.90;;;11.20;99.90;;;;;;6718494;88;22482;-79
2023/04/16 20:28:15;;;;;;;1999.90;999.90;;;11.10;99.90;;;;;;6720612;88;20177;-78
2023/04/16 20:49:39;;;;;;;1999.90;999.90;;;11.00;99.90;;;;;;6727724;88;20175;-79
2023/04/16 20:59:39;;;;;;;1999.90;999.90;;;10.90;99.90;;;;;;6708103;88;20166;-79
2023/04/16 21:09:40;;;;;;;1999.90;999.90;;;10.90;99.90;;;;;;6704923;88;20215;-77
2023/04/16 21:19:40;;;;;;;1999.90;999.90;;;10.90;99.90;;;;;;6706976;88;20225;-78
2023/04/16 21:29:41;;;;;;;1999.90;999.90;;;10.70;99.90;;;;;;6710945;88;20739;-78
2023/04/16 21:39:41;;;;;;;1999.90;999.90;;;10.60;99.90;;;;;;6707451;88;20211;-77
2023/04/16 21:49:42;;;;;;;1999.90;999.90;;;10.60;99.90;;;;;;6712589;88;20248;-76
2023/04/16 21:59:42;;;;;;;1999.90;999.90;;;10.60;99.90;;;;;;6706304;88;20920;-76
2023/04/16 22:09:43;;;;;;;1999.90;999.90;;;10.60;99.90;;;;;;6710253;88;20208;-76
2023/04/16 22:19:43;;;;;;;1999.90;999.90;;;10.60;99.90;;;;;;6708309;88;20356;-77
2023/04/16 22:29:44;;;;;;;1999.90;999.90;;;10.60;99.90;;;;;;6702858;88;20244;-79
2023/04/16 22:39:45;;;;;;;1999.90;999.90;;;10.50;99.90;;;;;;6705321;88;20977;-77
2023/04/16 22:49:46;;;;;;;1999.90;999.90;;;10.20;99.90;;;;;;6705054;88;20232;-77
2023/04/16 22:59:47;;;;;;;1999.90;999.90;;;10.00;99.90;;;;;;6701803;88;20228;-77
2023/04/16 23:09:47;;;;;;;1999.90;999.90;;;9.90;99.90;;;;;;6704174;88;20208;-77
2023/04/16 23:19:48;;;;;;;1999.90;999.90;;;9.80;99.90;;;;;;6704009;88;20621;-77
2023/04/16 23:29:48;;;;;;;1999.90;999.90;;;9.70;99.90;;;;;;6705293;88;20208;-77
2023/04/16 23:39:49;;;;;;;1999.90;999.90;;;9.60;99.90;;;;;;6704955;88;20218;-77
2023/04/16 23:49:49;;;;;;;1999.90;999.90;;;9.60;99.90;;;;;;6704336;88;20197;-75
2023/04/16 23:59:50;;;;;;;1999.90;999.90;;;9.50;99.90;;;;;;6705523;88;20195;-76
